createdAt,value
2017-10-28T00:00:11.352Z,0
2017-10-28T00:01:10.320Z,0
2017-10-28T00:02:10.645Z,0
2017-10-28T00:03:10.632Z,0
2017-10-28T00:04:10.615Z,0
2017-10-28T00:05:10.926Z,0
2017-10-28T00:06:10.581Z,0
2017-10-28T00:07:10.225Z,0
2017-10-28T00:08:10.881Z,0
2017-10-28T00:09:10.526Z,0
2017-10-28T00:10:10.506Z,0
2017-10-28T00:11:10.913Z,0
2017-10-28T00:12:10.812Z,0
2017-10-28T00:13:10.805Z,0
2017-10-28T00:14:10.448Z,0
2017-10-28T00:15:10.101Z,0
2017-10-28T00:16:10.417Z,0
2017-10-28T00:17:10.744Z,0
2017-10-28T00:18:11.075Z,0
2017-10-28T00:19:10.378Z,0
2017-10-28T00:20:10.692Z,0
2017-10-28T00:21:10.666Z,0
2017-10-28T00:22:10.653Z,0
2017-10-28T00:23:10.635Z,0
2017-10-28T00:24:10.617Z,0
2017-10-28T00:25:10.600Z,0
2017-10-28T00:26:10.306Z,0
2017-10-28T00:27:10.237Z,0
2017-10-28T00:28:09.548Z,0
2017-10-28T00:29:10.202Z,0
2017-10-28T00:30:10.875Z,0
2017-10-28T00:31:09.498Z,0
2017-10-28T00:32:10.515Z,0
2017-10-28T00:33:10.141Z,0
2017-10-28T00:34:10.119Z,0
2017-10-28T00:35:10.105Z,0
2017-10-28T00:36:10.091Z,0
2017-10-28T00:37:10.079Z,0
2017-10-28T00:38:09.723Z,0
2017-10-28T00:39:10.048Z,0
2017-10-28T00:40:10.030Z,0
2017-10-28T00:41:09.338Z,0
2017-10-28T00:42:09.990Z,0
2017-10-28T00:43:09.640Z,0
2017-10-28T00:44:10.294Z,0
2017-10-28T00:45:09.940Z,0
2017-10-28T00:46:10.255Z,0
2017-10-28T00:47:10.242Z,0
2017-10-28T00:48:09.547Z,0
2017-10-28T00:49:09.204Z,0
2017-10-28T00:50:10.209Z,0
2017-10-28T00:51:09.845Z,0
2017-10-28T00:52:09.890Z,0
2017-10-28T00:53:09.811Z,0
2017-10-28T00:54:10.123Z,0
2017-10-28T00:55:10.435Z,0
2017-10-28T00:56:09.763Z,0
2017-10-28T00:57:09.412Z,0
2017-10-28T00:58:09.395Z,0
2017-10-28T00:59:09.720Z,0
2017-10-28T01:00:09.029Z,0
2017-10-28T01:01:09.343Z,0
2017-10-28T01:02:09.657Z,0
2017-10-28T01:03:09.638Z,0
2017-10-28T01:04:09.967Z,0
2017-10-28T01:05:10.284Z,0
2017-10-28T01:06:09.597Z,0
2017-10-28T01:07:08.902Z,0
2017-10-28T01:08:09.222Z,0
2017-10-28T01:09:09.205Z,0
2017-10-28T01:10:09.525Z,0
2017-10-28T01:11:09.506Z,0
2017-10-28T01:12:09.849Z,0
2017-10-28T01:13:09.143Z,0
2017-10-28T01:14:09.791Z,0
2017-10-28T01:15:09.144Z,0
2017-10-28T01:16:10.096Z,0
2017-10-28T01:17:09.410Z,0
2017-10-28T01:18:09.057Z,0
2017-10-28T01:19:09.370Z,0
2017-10-28T01:20:09.370Z,0
2017-10-28T01:21:09.671Z,0
2017-10-28T01:22:09.697Z,0
2017-10-28T01:23:09.652Z,0
2017-10-28T01:24:09.331Z,0
2017-10-28T01:25:08.943Z,0
2017-10-28T01:26:08.591Z,0
2017-10-28T01:27:08.577Z,0
2017-10-28T01:28:09.232Z,0
2017-10-28T01:29:09.206Z,0
2017-10-28T01:30:09.199Z,0
2017-10-28T01:31:09.188Z,0
2017-10-28T01:32:08.824Z,0
2017-10-28T01:33:09.149Z,0
2017-10-28T01:34:09.483Z,0
2017-10-28T01:35:09.443Z,0
2017-10-28T01:36:08.760Z,0
2017-10-28T01:37:09.081Z,0
2017-10-28T01:38:08.725Z,0
2017-10-28T01:39:09.056Z,0
2017-10-28T01:40:08.695Z,0
2017-10-28T01:41:08.676Z,0
2017-10-28T01:42:09.002Z,0
2017-10-28T01:43:08.646Z,0
2017-10-28T01:44:09.331Z,0
2017-10-28T01:45:08.290Z,0
2017-10-28T01:46:08.259Z,0
2017-10-28T01:47:08.239Z,0
2017-10-28T01:48:08.897Z,0
2017-10-28T01:49:08.539Z,0
2017-10-28T01:50:08.192Z,0
2017-10-28T01:51:09.172Z,0
2017-10-28T01:52:08.489Z,0
2017-10-28T01:53:08.814Z,0
2017-10-28T01:54:08.466Z,0
2017-10-28T01:55:08.439Z,0
2017-10-28T01:56:08.431Z,0
2017-10-28T01:57:08.750Z,0
2017-10-28T01:58:08.726Z,0
2017-10-28T01:59:08.722Z,0
2017-10-28T02:00:09.033Z,0
2017-10-28T02:01:08.681Z,0
2017-10-28T02:02:08.655Z,0
2017-10-28T02:03:08.640Z,0
2017-10-28T02:04:08.641Z,0
2017-10-28T02:05:08.947Z,0
2017-10-28T02:06:08.259Z,0
2017-10-28T02:07:08.581Z,0
2017-10-28T02:08:08.557Z,0
2017-10-28T02:09:09.234Z,0
2017-10-28T02:10:08.533Z,0
2017-10-28T02:11:07.843Z,0
2017-10-28T02:12:08.501Z,0
2017-10-28T02:13:08.140Z,0
2017-10-28T02:14:08.451Z,0
2017-10-28T02:15:08.449Z,0
2017-10-28T02:16:08.797Z,0
2017-10-28T02:17:08.750Z,0
2017-10-28T02:18:08.065Z,0
2017-10-28T02:19:08.043Z,0
2017-10-28T02:20:08.023Z,0
2017-10-28T02:21:08.343Z,0
2017-10-28T02:22:08.323Z,0
2017-10-28T02:23:08.976Z,0
2017-10-28T02:24:08.299Z,0
2017-10-28T02:25:07.606Z,0
2017-10-28T02:26:08.598Z,0
2017-10-28T02:27:07.910Z,0
2017-10-28T02:28:07.883Z,0
2017-10-28T02:29:08.204Z,0
2017-10-28T02:30:08.535Z,0
2017-10-28T02:31:07.509Z,0
2017-10-28T02:32:07.818Z,0
2017-10-28T02:33:07.802Z,0
2017-10-28T02:34:07.785Z,0
2017-10-28T02:35:08.102Z,0
2017-10-28T02:36:08.426Z,0
2017-10-28T02:37:07.407Z,0
2017-10-28T02:38:08.121Z,0
2017-10-28T02:39:08.709Z,0
2017-10-28T02:40:08.694Z,0
2017-10-28T02:41:08.010Z,0
2017-10-28T02:42:08.660Z,0
2017-10-28T02:43:07.975Z,0
2017-10-28T02:44:07.969Z,0
2017-10-28T02:45:07.275Z,0
2017-10-28T02:46:07.924Z,0
2017-10-28T02:47:07.909Z,0
2017-10-28T02:48:07.893Z,0
2017-10-28T02:49:07.873Z,0
2017-10-28T02:50:08.192Z,0
2017-10-28T02:51:07.842Z,0
2017-10-28T02:52:07.829Z,0
2017-10-28T02:53:07.134Z,0
2017-10-28T02:54:07.129Z,0
2017-10-28T02:55:08.111Z,0
2017-10-28T02:56:07.086Z,0
2017-10-28T02:57:07.401Z,0
2017-10-28T02:58:08.061Z,0
2017-10-28T02:59:07.372Z,0
2017-10-28T03:00:08.035Z,0
2017-10-28T03:01:08.010Z,0
2017-10-28T03:02:07.327Z,0
2017-10-28T03:03:07.637Z,0
2017-10-28T03:04:07.280Z,0
2017-10-28T03:05:07.602Z,0
2017-10-28T03:06:07.279Z,0
2017-10-28T03:07:07.230Z,0
2017-10-28T03:08:07.217Z,0
2017-10-28T03:09:07.873Z,0
2017-10-28T03:10:07.849Z,0
2017-10-28T03:11:07.168Z,0
2017-10-28T03:12:07.149Z,0
2017-10-28T03:13:07.489Z,0
2017-10-28T03:14:07.794Z,0
2017-10-28T03:15:07.435Z,0
2017-10-28T03:16:07.745Z,0
2017-10-28T03:17:07.402Z,0
2017-10-28T03:18:07.064Z,0
2017-10-28T03:19:07.360Z,0
2017-10-28T03:20:07.021Z,0
2017-10-28T03:21:07.330Z,0
2017-10-28T03:22:07.977Z,0
2017-10-28T03:23:07.633Z,0
2017-10-28T03:24:07.615Z,0
2017-10-28T03:25:06.597Z,0
2017-10-28T03:26:07.248Z,0
2017-10-28T03:27:07.229Z,0
2017-10-28T03:28:07.208Z,0
2017-10-28T03:29:08.068Z,0
2017-10-28T03:30:07.191Z,0
2017-10-28T03:31:07.514Z,0
2017-10-28T03:32:06.809Z,0
2017-10-28T03:33:06.791Z,0
2017-10-28T03:34:07.118Z,0
2017-10-28T03:35:07.110Z,0
2017-10-28T03:36:07.409Z,0
2017-10-28T03:37:07.065Z,0
2017-10-28T03:38:07.038Z,0
2017-10-28T03:39:07.061Z,0
2017-10-28T03:40:07.346Z,0
2017-10-28T03:41:07.329Z,0
2017-10-28T03:42:06.982Z,0
2017-10-28T03:43:07.296Z,0
2017-10-28T03:44:06.658Z,0
2017-10-28T03:45:06.930Z,0
2017-10-28T03:46:07.238Z,0
2017-10-28T03:47:06.902Z,0
2017-10-28T03:48:07.210Z,0
2017-10-28T03:49:06.525Z,0
2017-10-28T03:50:06.501Z,0
2017-10-28T03:51:06.485Z,0
2017-10-28T03:52:06.809Z,0
2017-10-28T03:53:06.786Z,0
2017-10-28T03:54:06.106Z,0
2017-10-28T03:55:06.754Z,0
2017-10-28T03:56:07.080Z,0
2017-10-28T03:57:06.390Z,0
2017-10-28T03:58:06.705Z,0
2017-10-28T03:59:06.019Z,0
2017-10-28T04:00:07.010Z,0
2017-10-28T04:01:06.657Z,0
2017-10-28T04:02:06.636Z,0
2017-10-28T04:03:06.959Z,0
2017-10-28T04:04:06.598Z,0
2017-10-28T04:05:06.590Z,0
2017-10-28T04:06:06.568Z,0
2017-10-28T04:07:06.215Z,0
2017-10-28T04:08:06.193Z,0
2017-10-28T04:09:07.200Z,0
2017-10-28T04:10:06.168Z,0
2017-10-28T04:11:06.488Z,0
2017-10-28T04:12:06.467Z,0
2017-10-28T04:13:06.452Z,0
2017-10-28T04:14:06.103Z,0
2017-10-28T04:15:06.101Z,0
2017-10-28T04:16:06.400Z,0
2017-10-28T04:17:06.725Z,0
2017-10-28T04:18:06.036Z,0
2017-10-28T04:19:06.024Z,0
2017-10-28T04:20:06.338Z,0
2017-10-28T04:21:06.659Z,0
2017-10-28T04:22:06.630Z,0
2017-10-28T04:23:05.623Z,0
2017-10-28T04:24:06.601Z,0
2017-10-28T04:25:05.588Z,0
2017-10-28T04:26:06.568Z,0
2017-10-28T04:27:06.213Z,0
2017-10-28T04:28:05.528Z,0
2017-10-28T04:29:06.511Z,0
2017-10-28T04:30:06.835Z,0
2017-10-28T04:31:06.475Z,0
2017-10-28T04:32:06.811Z,0
2017-10-28T04:33:06.129Z,0
2017-10-28T04:34:06.101Z,0
2017-10-28T04:35:06.433Z,0
2017-10-28T04:36:06.073Z,0
2017-10-28T04:37:05.708Z,0
2017-10-28T04:38:05.694Z,0
2017-10-28T04:39:06.364Z,0
2017-10-28T04:40:06.340Z,0
2017-10-28T04:41:06.315Z,0
2017-10-28T04:42:05.309Z,0
2017-10-28T04:43:06.290Z,0
2017-10-28T04:44:05.268Z,0
2017-10-28T04:45:05.923Z,0
2017-10-28T04:46:05.554Z,0
2017-10-28T04:47:05.884Z,0
2017-10-28T04:48:05.858Z,0
2017-10-28T04:49:06.194Z,0
2017-10-28T04:50:05.826Z,0
2017-10-28T04:51:05.482Z,0
2017-10-28T04:52:06.485Z,0
2017-10-28T04:53:06.115Z,0
2017-10-28T04:54:05.423Z,0
2017-10-28T04:55:06.088Z,0
2017-10-28T04:56:06.073Z,0
2017-10-28T04:57:06.388Z,0
2017-10-28T04:58:05.355Z,0
2017-10-28T04:59:05.690Z,0
2017-10-28T05:00:05.996Z,0
2017-10-28T05:01:05.976Z,0
2017-10-28T05:02:04.955Z,0
2017-10-28T05:03:05.283Z,0
2017-10-28T05:04:05.258Z,0
2017-10-28T05:05:05.573Z,0
2017-10-28T05:06:05.272Z,0
2017-10-28T05:07:05.210Z,0
2017-10-28T05:08:05.221Z,0
2017-10-28T05:09:05.166Z,0
2017-10-28T05:10:06.153Z,0
2017-10-28T05:11:04.899Z,0
2017-10-28T05:12:04.786Z,0
2017-10-28T05:13:05.793Z,0
2017-10-28T05:14:05.432Z,0
2017-10-28T05:15:06.082Z,0
2017-10-28T05:16:05.382Z,0
2017-10-28T05:17:05.036Z,0
2017-10-28T05:18:05.406Z,0
2017-10-28T05:19:05.673Z,0
2017-10-28T05:20:05.325Z,0
2017-10-28T05:21:05.635Z,0
2017-10-28T05:22:05.620Z,0
2017-10-28T05:23:04.947Z,0
2017-10-28T05:24:04.936Z,0
2017-10-28T05:25:05.588Z,0
2017-10-28T05:26:05.565Z,0
2017-10-28T05:27:04.882Z,0
2017-10-28T05:28:04.873Z,0
2017-10-28T05:29:05.718Z,0
2017-10-28T05:30:05.156Z,0
2017-10-28T05:31:05.142Z,0
2017-10-28T05:32:05.132Z,0
2017-10-28T05:33:05.442Z,0
2017-10-28T05:34:04.763Z,0
2017-10-28T05:35:05.072Z,0
2017-10-28T05:36:05.478Z,0
2017-10-28T05:37:05.082Z,0
2017-10-28T05:38:04.692Z,0
2017-10-28T05:39:05.004Z,0
2017-10-28T05:40:05.346Z,0
2017-10-28T05:41:04.637Z,0
2017-10-28T05:42:04.941Z,0
2017-10-28T05:43:04.265Z,0
2017-10-28T05:44:04.581Z,0
2017-10-28T05:45:05.237Z,0
2017-10-28T05:46:05.217Z,0
2017-10-28T05:47:04.536Z,0
2017-10-28T05:48:04.509Z,0
2017-10-28T05:49:05.496Z,0
2017-10-28T05:50:05.156Z,0
2017-10-28T05:51:04.794Z,0
2017-10-28T05:52:04.106Z,0
2017-10-28T05:53:04.432Z,0
2017-10-28T05:54:05.413Z,0
2017-10-28T05:55:04.733Z,0
2017-10-28T05:56:04.705Z,0
2017-10-28T05:57:04.695Z,0
2017-10-28T05:58:05.016Z,0
2017-10-28T05:59:04.993Z,0
2017-10-28T06:00:04.318Z,0
2017-10-28T06:01:04.293Z,0
2017-10-28T06:02:04.945Z,0
2017-10-28T06:03:04.622Z,0
2017-10-28T06:04:04.243Z,0
2017-10-28T06:05:04.234Z,0
2017-10-28T06:06:04.210Z,0
2017-10-28T06:07:04.189Z,0
2017-10-28T06:08:05.175Z,0
2017-10-28T06:09:04.831Z,0
2017-10-28T06:10:04.477Z,0
2017-10-28T06:11:04.460Z,0
2017-10-28T06:12:05.259Z,0
2017-10-28T06:13:04.759Z,0
2017-10-28T06:14:03.738Z,0
2017-10-28T06:15:04.391Z,0
2017-10-28T06:16:04.044Z,0
2017-10-28T06:17:03.692Z,0
2017-10-28T06:18:04.336Z,0
2017-10-28T06:19:04.330Z,0
2017-10-28T06:20:03.989Z,0
2017-10-28T06:21:04.311Z,0
2017-10-28T06:22:04.278Z,0
2017-10-28T06:23:04.261Z,0
2017-10-28T06:24:04.233Z,0
2017-10-28T06:25:04.222Z,0
2017-10-28T06:26:03.870Z,0
2017-10-28T06:27:03.522Z,0
2017-10-28T06:28:03.504Z,0
2017-10-28T06:29:04.157Z,0
2017-10-28T06:30:04.479Z,5
2017-10-28T06:31:04.474Z,5
2017-10-28T06:32:04.116Z,5
2017-10-28T06:33:03.755Z,5
2017-10-28T06:34:04.424Z,5
2017-10-28T06:35:04.052Z,5
2017-10-28T06:36:04.377Z,5
2017-10-28T06:37:04.359Z,5
2017-10-28T06:38:04.010Z,5
2017-10-28T06:39:03.313Z,5
2017-10-28T06:40:03.641Z,5
2017-10-28T06:41:03.620Z,5
2017-10-28T06:42:03.964Z,5
2017-10-28T06:43:04.607Z,5
2017-10-28T06:44:03.900Z,5
2017-10-28T06:45:03.888Z,5
2017-10-28T06:46:03.210Z,10
2017-10-28T06:47:04.183Z,10
2017-10-28T06:48:03.498Z,10
2017-10-28T06:49:03.485Z,10
2017-10-28T06:50:03.493Z,10
2017-10-28T06:51:03.449Z,10
2017-10-28T06:52:03.773Z,5
2017-10-28T06:53:03.776Z,5
2017-10-28T06:54:03.404Z,5
2017-10-28T06:55:03.738Z,5
2017-10-28T06:56:04.032Z,5
2017-10-28T06:57:03.017Z,10
2017-10-28T06:58:04.008Z,10
2017-10-28T06:59:03.988Z,5
2017-10-28T07:00:03.634Z,5
2017-10-28T07:01:03.621Z,5
2017-10-28T07:02:03.948Z,5
2017-10-28T07:03:03.250Z,5
2017-10-28T07:04:04.241Z,5
2017-10-28T07:05:03.563Z,5
2017-10-28T07:06:03.214Z,5
2017-10-28T07:07:03.190Z,5
2017-10-28T07:08:03.503Z,5
2017-10-28T07:09:03.822Z,10
2017-10-28T07:10:03.808Z,10
2017-10-28T07:11:03.118Z,10
2017-10-28T07:12:03.106Z,10
2017-10-28T07:13:03.760Z,10
2017-10-28T07:14:03.746Z,10
2017-10-28T07:15:04.077Z,15
2017-10-28T07:16:03.036Z,20
2017-10-28T07:17:03.346Z,15
2017-10-28T07:18:03.461Z,20
2017-10-28T07:19:03.656Z,20
2017-10-28T07:20:03.312Z,10
2017-10-28T07:21:03.284Z,10
2017-10-28T07:22:02.595Z,15
2017-10-28T07:23:03.943Z,30
2017-10-28T07:24:02.898Z,25
2017-10-28T07:25:03.238Z,30
2017-10-28T07:26:03.570Z,30
2017-10-28T07:27:03.520Z,30
2017-10-28T07:28:03.161Z,25
2017-10-28T07:29:03.703Z,25
2017-10-28T07:30:02.800Z,20
2017-10-28T07:31:02.783Z,20
2017-10-28T07:32:02.439Z,15
2017-10-28T07:33:03.772Z,20
2017-10-28T07:34:02.767Z,15
2017-10-28T07:35:03.094Z,15
2017-10-28T07:36:03.365Z,20
2017-10-28T07:37:03.019Z,20
2017-10-28T07:38:02.660Z,20
2017-10-28T07:39:02.643Z,15
2017-10-28T07:40:02.649Z,15
2017-10-28T07:41:02.623Z,20
2017-10-28T07:42:03.276Z,20
2017-10-28T07:43:02.910Z,20
2017-10-28T07:44:02.564Z,15
2017-10-28T07:45:02.542Z,15
2017-10-28T07:46:02.871Z,15
2017-10-28T07:47:03.181Z,15
2017-10-28T07:48:02.498Z,10
2017-10-28T07:49:02.825Z,10
2017-10-28T07:50:03.125Z,10
2017-10-28T07:51:02.783Z,10
2017-10-28T07:52:02.419Z,10
2017-10-28T07:53:02.732Z,15
2017-10-28T07:54:02.387Z,15
2017-10-28T07:55:02.709Z,15
2017-10-28T07:56:02.355Z,15
2017-10-28T07:57:02.345Z,20
2017-10-28T07:58:02.990Z,20
2017-10-28T07:59:02.305Z,15
2017-10-28T08:00:02.979Z,20
2017-10-28T08:01:02.619Z,20
2017-10-28T08:02:02.920Z,20
2017-10-28T08:03:02.585Z,15
2017-10-28T08:04:02.891Z,15
2017-10-28T08:05:02.545Z,15
2017-10-28T08:06:02.854Z,20
2017-10-28T08:07:01.836Z,30
2017-10-28T08:08:02.161Z,30
2017-10-28T08:09:02.134Z,30
2017-10-28T08:10:02.456Z,25
2017-10-28T08:11:02.785Z,20
2017-10-28T08:12:02.088Z,20
2017-10-28T08:13:02.069Z,25
2017-10-28T08:14:02.061Z,40
2017-10-28T08:15:02.385Z,35
2017-10-28T08:16:02.357Z,25
2017-10-28T08:17:02.685Z,25
2017-10-28T08:18:02.330Z,25
2017-10-28T08:19:02.640Z,35
2017-10-28T08:20:02.290Z,45
2017-10-28T08:21:02.290Z,40
2017-10-28T08:22:01.918Z,45
2017-10-28T08:23:01.906Z,50
2017-10-28T08:24:02.556Z,40
2017-10-28T08:25:01.879Z,35
2017-10-28T08:26:02.531Z,40
2017-10-28T08:27:02.172Z,45
2017-10-28T08:28:02.173Z,40
2017-10-28T08:29:02.808Z,55
2017-10-28T08:30:02.128Z,50
2017-10-28T08:31:01.440Z,50
2017-10-28T08:32:01.420Z,45
2017-10-28T08:33:01.409Z,70
2017-10-28T08:34:02.056Z,50
2017-10-28T08:35:02.035Z,50
2017-10-28T08:36:02.024Z,45
2017-10-28T08:37:02.008Z,50
2017-10-28T08:38:01.987Z,40
2017-10-28T08:39:02.307Z,35
2017-10-28T08:40:01.950Z,25
2017-10-28T08:41:01.602Z,25
2017-10-28T08:42:01.585Z,20
2017-10-28T08:43:02.575Z,25
2017-10-28T08:44:01.884Z,35
2017-10-28T08:45:02.203Z,50
2017-10-28T08:46:02.189Z,45
2017-10-28T08:47:01.836Z,40
2017-10-28T08:48:01.485Z,40
2017-10-28T08:49:01.803Z,50
2017-10-28T08:50:01.796Z,50
2017-10-28T08:51:01.447Z,45
2017-10-28T08:52:01.752Z,45
2017-10-28T08:53:01.746Z,40
2017-10-28T08:54:01.414Z,40
2017-10-28T08:55:02.433Z,40
2017-10-28T08:56:01.689Z,35
2017-10-28T08:57:01.671Z,40
2017-10-28T08:58:01.653Z,40
2017-10-28T08:59:01.651Z,45
2017-10-28T09:00:01.284Z,50
2017-10-28T09:01:00.936Z,50
2017-10-28T09:02:01.924Z,50
2017-10-28T09:03:02.268Z,50
2017-10-28T09:04:01.235Z,55
2017-10-28T09:05:01.879Z,50
2017-10-28T09:06:01.530Z,50
2017-10-28T09:07:02.196Z,45
2017-10-28T09:08:01.490Z,45
2017-10-28T09:09:02.141Z,40
2017-10-28T09:10:01.451Z,40
2017-10-28T09:11:01.440Z,45
2017-10-28T09:12:01.426Z,45
2017-10-28T09:13:01.739Z,65
2017-10-28T09:14:01.721Z,65
2017-10-28T09:15:00.705Z,55
2017-10-28T09:16:01.026Z,65
2017-10-28T09:17:00.673Z,70
2017-10-28T09:18:00.676Z,90
2017-10-28T09:19:01.643Z,105
2017-10-28T09:20:01.973Z,80
2017-10-28T09:21:01.280Z,50
2017-10-28T09:22:01.260Z,55
2017-10-28T09:23:01.612Z,50
2017-10-28T09:24:01.250Z,45
2017-10-28T09:25:01.557Z,45
2017-10-28T09:26:00.862Z,45
2017-10-28T09:27:01.545Z,45
2017-10-28T09:28:01.185Z,45
2017-10-28T09:29:01.347Z,65
2017-10-28T09:30:01.466Z,70
2017-10-28T09:31:01.109Z,60
2017-10-28T09:32:01.136Z,65
2017-10-28T09:33:00.415Z,60
2017-10-28T09:34:00.734Z,55
2017-10-28T09:35:01.722Z,60
2017-10-28T09:36:01.034Z,65
2017-10-28T09:37:00.362Z,60
2017-10-28T09:38:01.008Z,60
2017-10-28T09:39:00.647Z,50
2017-10-28T09:40:01.301Z,55
2017-10-28T09:41:01.288Z,45
2017-10-28T09:42:00.602Z,50
2017-10-28T09:43:00.927Z,45
2017-10-28T09:44:01.240Z,50
2017-10-28T09:45:01.231Z,55
2017-10-28T09:46:01.548Z,40
2017-10-28T09:47:00.181Z,30
2017-10-28T09:48:00.836Z,30
2017-10-28T09:49:00.807Z,30
2017-10-28T09:50:01.127Z,35
2017-10-28T09:51:01.130Z,35
2017-10-28T09:52:01.443Z,35
2017-10-28T09:53:00.777Z,35
2017-10-28T09:54:01.414Z,40
2017-10-28T09:55:00.381Z,35
2017-10-28T09:56:00.698Z,35
2017-10-28T09:57:01.069Z,40
2017-10-28T09:58:01.340Z,50
2017-10-28T09:59:00.992Z,40
2017-10-28T10:00:00.986Z,50
2017-10-28T10:01:01.000Z,50
2017-10-28T10:02:00.692Z,50
2017-10-28T10:03:00.255Z,45
2017-10-28T10:04:01.247Z,35
2017-10-28T10:05:00.561Z,25
2017-10-28T10:06:00.910Z,30
2017-10-28T10:07:00.215Z,40
2017-10-28T10:08:00.543Z,35
2017-10-28T10:09:00.520Z,35
2017-10-28T10:10:00.156Z,35
2017-10-28T10:11:00.851Z,30
2017-10-28T10:12:00.445Z,25
2017-10-28T10:13:00.769Z,25
2017-10-28T10:14:00.859Z,30
2017-10-28T10:15:00.418Z,40
2017-10-28T10:16:01.059Z,40
2017-10-28T10:17:00.514Z,35
2017-10-28T10:18:00.341Z,55
2017-10-28T10:18:59.995Z,60
2017-10-28T10:20:00.302Z,55
2017-10-28T10:21:00.635Z,65
2017-10-28T10:22:00.607Z,50
2017-10-28T10:23:00.937Z,40
2017-10-28T10:23:59.911Z,40
2017-10-28T10:25:00.585Z,45
2017-10-28T10:26:00.536Z,50
2017-10-28T10:26:59.854Z,45
2017-10-28T10:28:00.845Z,55
2017-10-28T10:29:00.493Z,65
2017-10-28T10:30:00.496Z,55
2017-10-28T10:31:00.846Z,55
2017-10-28T10:32:00.320Z,50
2017-10-28T10:33:00.104Z,45
2017-10-28T10:34:00.084Z,45
2017-10-28T10:35:00.073Z,40
2017-10-28T10:36:00.050Z,50
2017-10-28T10:37:00.371Z,40
2017-10-28T10:38:00.012Z,45
2017-10-28T10:39:00.335Z,45
2017-10-28T10:40:00.657Z,55
2017-10-28T10:41:00.302Z,65
2017-10-28T10:42:00.283Z,55
2017-10-28T10:43:00.271Z,50
2017-10-28T10:44:00.249Z,50
2017-10-28T10:44:59.893Z,45
2017-10-28T10:45:59.877Z,50
2017-10-28T10:47:00.531Z,50
2017-10-28T10:47:59.849Z,45
2017-10-28T10:49:00.164Z,50
2017-10-28T10:49:59.474Z,50
2017-10-28T10:50:59.465Z,50
2017-10-28T10:51:59.782Z,45
2017-10-28T10:53:00.117Z,35
2017-10-28T10:54:00.083Z,45
2017-10-28T10:55:00.404Z,50
2017-10-28T10:55:59.383Z,50
2017-10-28T10:57:00.039Z,50
2017-10-28T10:58:00.015Z,55
2017-10-28T10:59:00.029Z,50
2017-10-28T10:59:59.656Z,50
2017-10-28T11:00:59.633Z,45
2017-10-28T11:01:59.619Z,40
2017-10-28T11:02:59.636Z,45
2017-10-28T11:03:59.942Z,50
2017-10-28T11:04:59.941Z,45
2017-10-28T11:05:59.552Z,50
2017-10-28T11:06:59.930Z,45
2017-10-28T11:07:59.896Z,50
2017-10-28T11:08:59.515Z,50
2017-10-28T11:09:59.841Z,50
2017-10-28T11:10:59.149Z,40
2017-10-28T11:11:59.789Z,40
2017-10-28T11:12:59.446Z,45
2017-10-28T11:13:59.758Z,50
2017-10-28T11:14:59.742Z,55
2017-10-28T11:15:59.736Z,65
2017-10-28T11:16:59.390Z,60
2017-10-28T11:17:59.366Z,75
2017-10-28T11:18:59.683Z,80
2017-10-28T11:19:59.328Z,60
2017-10-28T11:20:59.649Z,65
2017-10-28T11:21:59.643Z,55
2017-10-28T11:22:59.615Z,65
2017-10-28T11:23:59.267Z,80
2017-10-28T11:24:58.914Z,75
2017-10-28T11:25:59.236Z,60
2017-10-28T11:26:59.895Z,60
2017-10-28T11:27:59.868Z,60
2017-10-28T11:28:59.047Z,85
2017-10-28T11:29:59.499Z,70
2017-10-28T11:30:58.820Z,50
2017-10-28T11:31:59.468Z,70
2017-10-28T11:32:59.454Z,60
2017-10-28T11:33:59.445Z,80
2017-10-28T11:34:59.441Z,85
2017-10-28T11:35:59.071Z,75
2017-10-28T11:36:59.732Z,70
2017-10-28T11:37:58.717Z,65
2017-10-28T11:38:59.023Z,65
2017-10-28T11:39:59.671Z,75
2017-10-28T11:40:59.710Z,50
2017-10-28T11:41:58.981Z,65
2017-10-28T11:42:58.960Z,70
2017-10-28T11:43:59.275Z,60
2017-10-28T11:44:58.596Z,80
2017-10-28T11:45:58.951Z,80
2017-10-28T11:46:59.219Z,100
2017-10-28T11:47:58.537Z,95
2017-10-28T11:48:59.533Z,95
2017-10-28T11:49:59.511Z,75
2017-10-28T11:50:58.504Z,80
2017-10-28T11:51:58.819Z,85
2017-10-28T11:52:59.142Z,70
2017-10-28T11:53:58.784Z,60
2017-10-28T11:54:58.434Z,75
2017-10-28T11:55:58.750Z,90
2017-10-28T11:56:58.390Z,85
2017-10-28T11:57:59.078Z,50
2017-10-28T11:58:58.703Z,55
2017-10-28T11:59:58.686Z,65
2017-10-28T12:00:59.000Z,65
2017-10-28T12:01:57.994Z,80
2017-10-28T12:02:58.636Z,80
2017-10-28T12:03:58.629Z,95
2017-10-28T12:04:58.613Z,95
2017-10-28T12:05:58.583Z,110
2017-10-28T12:06:58.615Z,110
2017-10-28T12:07:58.220Z,125
2017-10-28T12:08:57.877Z,125
2017-10-28T12:09:58.197Z,90
2017-10-28T12:10:58.183Z,95
2017-10-28T12:11:58.901Z,95
2017-10-28T12:12:58.524Z,65
2017-10-28T12:13:58.795Z,80
2017-10-28T12:14:58.115Z,95
2017-10-28T12:15:58.763Z,85
2017-10-28T12:16:58.758Z,105
2017-10-28T12:17:58.742Z,140
2017-10-28T12:18:58.390Z,155
2017-10-28T12:19:58.707Z,155
2017-10-28T12:20:58.695Z,150
2017-10-28T12:21:58.663Z,130
2017-10-28T12:22:58.320Z,105
2017-10-28T12:23:58.300Z,115
2017-10-28T12:24:58.628Z,105
2017-10-28T12:25:58.611Z,115
2017-10-28T12:26:58.259Z,110
2017-10-28T12:27:57.916Z,120
2017-10-28T12:28:58.572Z,115
2017-10-28T12:29:58.213Z,115
2017-10-28T12:30:58.186Z,115
2017-10-28T12:31:58.842Z,115
2017-10-28T12:32:58.893Z,110
2017-10-28T12:33:58.568Z,115
2017-10-28T12:34:58.467Z,110
2017-10-28T12:35:58.472Z,100
2017-10-28T12:36:58.756Z,115
2017-10-28T12:37:58.415Z,110
2017-10-28T12:38:58.404Z,135
2017-10-28T12:39:58.056Z,145
2017-10-28T12:40:57.697Z,155
2017-10-28T12:41:58.367Z,155
2017-10-28T12:42:58.003Z,140
2017-10-28T12:43:58.341Z,115
2017-10-28T12:44:57.641Z,110
2017-10-28T12:45:58.299Z,90
2017-10-28T12:46:57.953Z,80
2017-10-28T12:47:57.932Z,95
2017-10-28T12:48:58.583Z,120
2017-10-28T12:49:58.577Z,135
2017-10-28T12:50:57.879Z,140
2017-10-28T12:51:57.874Z,140
2017-10-28T12:52:57.844Z,150
2017-10-28T12:53:58.502Z,130
2017-10-28T12:54:57.810Z,135
2017-10-28T12:55:57.798Z,125
2017-10-28T12:56:58.128Z,110
2017-10-28T12:57:57.433Z,95
2017-10-28T12:58:57.420Z,95
2017-10-28T12:59:57.411Z,120
2017-10-28T13:00:57.390Z,110
2017-10-28T13:01:57.711Z,90
2017-10-28T13:02:58.030Z,100
2017-10-28T13:03:58.014Z,85
2017-10-28T13:04:57.661Z,70
2017-10-28T13:05:57.338Z,80
2017-10-28T13:06:57.962Z,105
2017-10-28T13:07:57.618Z,115
2017-10-28T13:08:57.609Z,110
2017-10-28T13:09:57.589Z,95
2017-10-28T13:10:57.900Z,95
2017-10-28T13:11:57.559Z,100
2017-10-28T13:12:57.877Z,140
2017-10-28T13:13:57.200Z,125
2017-10-28T13:14:57.850Z,110
2017-10-28T13:15:57.616Z,100
2017-10-28T13:16:58.161Z,100
2017-10-28T13:17:57.471Z,75
2017-10-28T13:18:57.794Z,75
2017-10-28T13:19:57.431Z,70
2017-10-28T13:20:57.424Z,55
2017-10-28T13:21:57.745Z,40
2017-10-28T13:22:57.722Z,45
2017-10-28T13:23:57.812Z,50
2017-10-28T13:24:57.361Z,55
2017-10-28T13:25:57.354Z,70
2017-10-28T13:26:57.332Z,90
2017-10-28T13:27:57.642Z,90
2017-10-28T13:28:57.705Z,80
2017-10-28T13:29:57.637Z,70
2017-10-28T13:30:57.268Z,70
2017-10-28T13:31:57.255Z,85
2017-10-28T13:32:57.574Z,75
2017-10-28T13:33:56.889Z,65
2017-10-28T13:34:57.545Z,65
2017-10-28T13:35:57.525Z,65
2017-10-28T13:36:57.513Z,75
2017-10-28T13:37:56.821Z,75
2017-10-28T13:38:57.471Z,75
2017-10-28T13:39:57.473Z,70
2017-10-28T13:40:56.779Z,50
2017-10-28T13:41:56.759Z,55
2017-10-28T13:42:56.751Z,60
2017-10-28T13:43:57.410Z,60
2017-10-28T13:44:57.422Z,70
2017-10-28T13:45:57.398Z,85
2017-10-28T13:46:57.371Z,70
2017-10-28T13:47:57.681Z,65
2017-10-28T13:48:57.328Z,75
2017-10-28T13:49:56.632Z,60
2017-10-28T13:50:56.973Z,45
2017-10-28T13:51:56.608Z,45
2017-10-28T13:52:57.303Z,40
2017-10-28T13:53:56.910Z,45
2017-10-28T13:54:56.929Z,55
2017-10-28T13:55:57.012Z,65
2017-10-28T13:56:57.298Z,50
2017-10-28T13:57:56.314Z,50
2017-10-28T13:58:57.275Z,55
2017-10-28T13:59:57.305Z,50
2017-10-28T14:00:56.572Z,60
2017-10-28T14:01:56.875Z,60
2017-10-28T14:02:57.170Z,65
2017-10-28T14:03:56.497Z,50
2017-10-28T14:04:57.146Z,45
2017-10-28T14:05:56.775Z,50
2017-10-28T14:06:56.788Z,45
2017-10-28T14:07:56.742Z,40
2017-10-28T14:08:57.147Z,45
2017-10-28T14:09:56.799Z,55
2017-10-28T14:10:57.066Z,55
2017-10-28T14:11:57.061Z,45
2017-10-28T14:12:57.230Z,45
2017-10-28T14:13:57.497Z,50
2017-10-28T14:14:56.653Z,45
2017-10-28T14:15:56.039Z,40
2017-10-28T14:16:56.676Z,40
2017-10-28T14:17:56.932Z,35
2017-10-28T14:18:56.615Z,30
2017-10-28T14:19:57.316Z,30
2017-10-28T14:20:57.103Z,35
2017-10-28T14:21:56.216Z,25
2017-10-28T14:22:56.530Z,25
2017-10-28T14:23:56.899Z,30
2017-10-28T14:24:57.576Z,25
2017-10-28T14:25:56.480Z,20
2017-10-28T14:26:56.333Z,15
2017-10-28T14:27:56.462Z,20